Time;durP1;ratioP1;P1;durP2;ratioP2;P2;SDS_P1;SDS_P2;PMS_P1;PMS_P2;Temp;Humidity;BMP_temperature;BMP_pressure;BME280_temperature;BME280_humidity;BME280_pressure;Samples;Min_cycle;Max_cycle;Signal;HPM_P1;HPM_P2
2021/11/15 00:02:07;;;;;;;;;60.50;47.50;;;;;10.54;72.19;102084.84;5030391;28;45838;-69
2021/11/15 00:04:34;;;;;;;;;53.00;42.25;;;;;10.50;72.52;102085.84;5032083;28;45466;-69
2021/11/15 00:07:01;;;;;;;;;55.25;42.50;;;;;10.51;72.33;102084.97;5028124;28;45518;-70
2021/11/15 00:09:27;;;;;;;;;53.50;41.50;;;;;10.48;72.09;102085.91;5026891;28;45501;-68
2021/11/15 00:11:53;;;;;;;;;53.00;40.75;;;;;10.48;72.49;102090.34;5030254;28;45509;-71
2021/11/15 00:14:19;;;;;;;;;51.00;42.00;;;;;10.46;72.49;102090.41;5029743;28;45573;-69
2021/11/15 00:16:45;;;;;;;;;46.25;38.25;;;;;10.45;72.58;102096.59;5031339;28;46060;-66
2021/11/15 00:19:11;;;;;;;;;45.25;37.50;;;;;10.44;72.14;102086.97;5031881;28;45470;-68
2021/11/15 00:21:37;;;;;;;;;47.25;39.50;;;;;10.42;72.36;102086.13;5031635;28;45343;-71
2021/11/15 00:24:03;;;;;;;;;54.25;42.25;;;;;10.38;72.03;102086.34;5023365;28;45534;-70
2021/11/15 00:26:29;;;;;;;;;52.50;38.50;;;;;10.33;72.38;102082.06;5033575;28;46402;-69
2021/11/15 00:28:56;;;;;;;;;48.50;39.00;;;;;10.29;72.15;102087.53;5031559;28;45398;-70
2021/11/15 00:31:22;;;;;;;;;44.75;38.75;;;;;10.28;72.45;102084.03;5029728;28;45522;-73
2021/11/15 00:33:48;;;;;;;;;48.00;34.50;;;;;10.26;72.69;102082.34;5032326;28;45399;-69
2021/11/15 00:36:14;;;;;;;;;47.00;38.50;;;;;10.21;72.73;102081.66;5030787;28;46419;-69
2021/11/15 00:38:40;;;;;;;;;51.00;38.75;;;;;10.18;72.37;102087.88;5020807;28;45359;-71
2021/11/15 00:41:05;;;;;;;;;54.00;39.00;;;;;10.17;72.33;102083.50;5033082;28;45773;-67
2021/11/15 00:43:31;;;;;;;;;44.75;38.75;;;;;10.14;72.68;102080.16;5032158;28;45450;-70
2021/11/15 00:45:57;;;;;;;;;42.50;37.00;;;;;10.13;72.78;102083.69;5031253;28;46006;-76
2021/11/15 00:48:23;;;;;;;;;52.00;40.00;;;;;10.11;72.88;102086.41;5029856;28;45429;-71
2021/11/15 00:50:49;;;;;;;;;50.50;36.50;;;;;10.08;72.60;102084.72;5033536;28;45819;-76
2021/11/15 00:53:14;;;;;;;;;48.00;38.00;;;;;10.06;72.38;102089.19;5031547;28;45978;-71
2021/11/15 00:55:40;;;;;;;;;52.25;38.50;;;;;10.04;73.00;102082.25;5031879;28;45475;-67
2021/11/15 00:58:06;;;;;;;;;41.00;35.25;;;;;10.02;72.65;102081.44;5034209;28;45391;-69
2021/11/15 01:00:34;;;;;;;;;55.00;38.75;;;;;10.02;72.73;102081.44;5033211;28;45423;-74
2021/11/15 01:03:00;;;;;;;;;53.00;37.75;;;;;10.02;72.78;102082.28;5033632;28;45363;-69
2021/11/15 01:05:27;;;;;;;;;51.00;38.50;;;;;10.01;72.50;102084.97;5032620;28;45578;-72
2021/11/15 01:07:53;;;;;;;;;48.75;34.50;;;;;9.98;72.73;102088.59;5035584;28;45261;-69
2021/11/15 01:10:21;;;;;;;;;53.25;36.75;;;;;9.95;72.66;102085.19;5039483;28;45369;-69
2021/11/15 01:12:46;;;;;;;;;32.50;32.50;;;;;9.91;72.69;102081.81;5032461;28;45299;-68
2021/11/15 01:15:16;;;;;;;;;44.25;34.75;;;;;9.91;72.55;102088.84;5034101;28;46014;-68
2021/11/15 01:17:42;;;;;;;;;40.00;34.75;;;;;9.91;72.21;102084.44;5032484;28;45332;-73
2021/11/15 01:20:11;;;;;;;;;45.00;37.00;;;;;9.88;72.76;102087.19;5033985;28;45482;-66
2021/11/15 01:22:37;;;;;;;;;39.50;33.75;;;;;9.87;72.57;102087.22;5028736;28;45443;-65
2021/11/15 01:25:05;;;;;;;;;34.50;32.00;;;;;9.86;72.77;102088.16;5031133;28;45954;-67
2021/11/15 01:27:30;;;;;;;;;43.75;32.50;;;;;9.84;72.54;102092.63;5034750;28;45606;-69
2021/11/15 01:29:56;;;;;;;;;48.25;37.75;;;;;9.81;72.30;102084.84;5029698;28;45537;-67
2021/11/15 01:32:22;;;;;;;;;44.00;32.25;;;;;9.78;72.46;102089.25;5026925;28;45255;-68
2021/11/15 01:34:47;;;;;;;;;42.75;36.00;;;;;9.76;72.60;102084.97;5033700;28;45994;-69
2021/11/15 01:37:13;;;;;;;;;46.25;35.25;;;;;9.70;72.08;102086.03;5034740;28;45261;-74
2021/11/15 01:39:38;;;;;;;;;34.50;34.50;;;;;9.68;72.64;102087.00;5029619;28;45455;-67
2021/11/15 01:42:04;;;;;;;;;41.25;34.75;;;;;9.67;72.68;102087.94;5018024;28;45364;-69
2021/11/15 01:44:31;;;;;;;;;43.00;36.25;;;;;9.66;72.69;102089.69;5031238;28;45233;-68
2021/11/15 01:46:57;;;;;;;;;48.25;33.00;;;;;9.64;72.27;102091.53;5038020;28;45241;-66
2021/11/15 01:49:23;;;;;;;;;44.25;37.25;;;;;9.62;72.76;102095.97;5034595;28;45648;-73
2021/11/15 01:51:49;;;;;;;;;50.25;38.50;;;;;9.62;72.30;102101.22;5037461;28;45463;-68
2021/11/15 07:55:27;;;;;;;;;47.75;34.50;;;;;8.79;74.55;102181.81;4919347;28;68356;-68
2021/11/15 07:57:52;;;;;;;;;49.50;33.25;;;;;8.81;74.08;102190.50;4927511;28;45824;-71
2021/11/15 08:00:21;;;;;;;;;33.75;26.25;;;;;8.86;74.43;102193.03;4934623;28;45783;-71
2021/11/15 08:02:48;;;;;;;;;37.00;31.75;;;;;8.89;74.26;102191.16;4941687;28;45338;-70
2021/11/15 08:05:16;;;;;;;;;47.00;36.50;;;;;8.93;73.95;102202.47;4947136;28;45340;-69
2021/11/15 08:07:42;;;;;;;;;42.00;33.75;;;;;8.90;74.12;102200.75;4961390;28;45459;-75
2021/11/15 08:10:10;;;;;;;;;41.00;28.75;;;;;8.95;74.25;102205.91;4960457;28;45504;-74
2021/11/15 08:12:43;;;;;;;;;42.25;31.50;;;;;8.97;74.28;102192.69;4949355;28;45243;-72
2021/11/15 08:15:12;;;;;;;;;44.00;34.50;;;;;8.92;74.17;102200.72;4944866;28;45323;-71
2021/11/15 08:17:39;;;;;;;;;37.50;35.50;;;;;8.93;74.25;102199.81;4942235;28;45335;-72
2021/11/15 08:20:07;;;;;;;;;43.50;34.50;;;;;8.94;74.33;102199.78;4942008;28;45392;-75
2021/11/15 08:22:33;;;;;;;;;54.25;37.00;;;;;9.00;74.27;102201.34;4940396;28;45328;-72
2021/11/15 08:24:59;;;;;;;;;30.00;29.25;;;;;9.03;73.89;102200.41;4941025;28;45343;-76
2021/11/15 08:27:25;;;;;;;;;38.00;32.75;;;;;9.05;74.40;102203.84;4942042;28;45324;-72
2021/11/15 08:29:51;;;;;;;;;42.75;33.00;;;;;9.04;74.03;102207.38;4941460;28;45275;-73
2021/11/15 08:32:24;;;;;;;;;46.75;38.25;;;;;9.08;73.92;102204.59;4933544;28;45343;-73
2021/11/15 08:34:50;;;;;;;;;36.00;34.75;;;;;9.12;73.99;102205.41;4940840;28;45363;-76
2021/11/15 08:37:16;;;;;;;;;48.50;39.00;;;;;9.08;73.61;102204.59;4941911;28;45356;-73
2021/11/15 08:39:41;;;;;;;;;45.75;38.00;;;;;9.05;74.00;102204.72;4940687;28;46022;-73
2021/11/15 08:42:12;;;;;;;;;43.50;35.00;;;;;9.10;74.30;102201.97;4932573;28;45406;-78
2021/11/15 08:44:41;;;;;;;;;37.25;30.25;;;;;9.09;74.33;102206.34;4935305;28;45579;-74
2021/11/15 08:47:07;;;;;;;;;41.50;31.25;;;;;9.05;73.99;102202.09;4938278;28;45641;-72
2021/11/15 08:49:33;;;;;;;;;35.50;27.50;;;;;9.06;74.11;102195.06;4928804;28;45929;-77
2021/11/15 08:52:00;;;;;;;;;42.75;31.75;;;;;9.07;74.42;102202.88;4921051;28;45336;-73
2021/11/15 08:55:21;;;;;;;;;36.25;27.75;;;;;9.14;74.32;102200.94;4931182;28;45461;-74
2021/11/15 08:57:47;;;;;;;;;43.00;31.50;;;;;9.13;73.82;102197.47;4915893;28;45410;-74
2021/11/15 09:00:13;;;;;;;;;41.25;30.50;;;;;9.13;74.18;102204.47;4917274;28;45350;-68
2021/11/15 09:02:38;;;;;;;;;41.50;32.00;;;;;9.14;74.07;102193.06;4914169;28;45399;-71
2021/11/15 09:05:05;;;;;;;;;37.50;31.00;;;;;9.17;73.96;102198.25;4914314;28;45473;-77
2021/11/15 09:07:34;;;;;;;;;39.25;33.00;;;;;9.14;74.32;102193.91;4914382;28;45478;-73
2021/11/15 09:10:01;;;;;;;;;39.50;34.25;;;;;9.10;74.03;102191.44;4916334;28;45904;-75
2021/11/15 09:12:26;;;;;;;;;42.00;29.25;;;;;9.09;74.66;102184.47;4913566;28;45284;-71
2021/11/15 09:14:55;;;;;;;;;33.00;30.25;;;;;9.12;74.02;102182.59;4918431;28;45196;-76
2021/11/15 09:17:21;;;;;;;;;33.25;27.50;;;;;9.10;74.27;102176.53;4917798;28;45361;-73
2021/11/15 09:19:48;;;;;;;;;47.00;38.75;;;;;9.10;74.14;102194.94;4917323;28;46037;-71
2021/11/15 09:22:14;;;;;;;;;40.75;29.00;;;;;9.02;74.43;102189.03;4916932;28;45481;-71
2021/11/15 09:24:41;;;;;;;;;55.00;35.25;;;;;9.00;74.43;102188.19;4916126;28;45849;-73
2021/11/15 09:27:12;;;;;;;;;32.25;26.00;;;;;8.99;74.81;102183.00;4916988;28;45548;-70
2021/11/15 09:29:38;;;;;;;;;40.00;31.75;;;;;9.01;74.65;102187.31;4920462;28;45363;-74
2021/11/15 09:32:04;;;;;;;;;40.00;29.00;;;;;9.03;74.37;102184.66;4922707;28;45482;-69
2021/11/15 09:34:29;;;;;;;;;33.25;29.00;;;;;9.03;74.73;102189.91;4919523;28;45420;-76
2021/11/15 09:36:55;;;;;;;;;44.25;34.50;;;;;9.03;74.71;102187.28;4917565;28;45283;-72
2021/11/15 09:39:23;;;;;;;;;46.25;32.75;;;;;9.10;75.11;102191.44;4918899;28;45288;-78
2021/11/15 09:41:48;;;;;;;;;40.50;34.75;;;;;9.17;74.50;102190.34;4917183;28;45351;-71
2021/11/15 09:44:15;;;;;;;;;43.50;30.00;;;;;9.24;74.98;102181.34;4918745;28;45360;-73
2021/11/15 09:46:43;;;;;;;;;39.50;35.25;;;;;9.31;74.61;102188.13;4917516;28;45340;-73
2021/11/15 09:49:12;;;;;;;;;47.50;38.50;;;;;9.30;74.29;102191.69;4915884;28;46411;-68
2021/11/15 09:51:43;;;;;;;;;43.50;32.00;;;;;9.32;74.41;102199.53;4901387;28;45529;-69
2021/11/15 09:54:11;;;;;;;;;41.25;31.50;;;;;9.34;74.74;102203.00;4919703;28;45416;-70
2021/11/15 09:56:37;;;;;;;;;43.50;37.00;;;;;9.35;74.15;102213.44;4918528;28;45327;-75
2021/11/15 09:59:05;;;;;;;;;36.75;33.75;;;;;9.36;74.26;102219.56;4920534;28;45475;-78
2021/11/15 10:01:32;;;;;;;;;47.25;37.00;;;;;9.33;74.66;102214.41;4914801;28;45505;-77
2021/11/15 10:03:58;;;;;;;;;33.75;30.50;;;;;9.33;74.15;102215.28;4920239;28;45454;-69
2021/11/15 10:06:23;;;;;;;;;45.50;30.75;;;;;9.33;74.33;102209.16;4916154;28;45501;-75
2021/11/15 10:08:53;;;;;;;;;36.50;30.25;;;;;9.38;74.02;102207.22;4916825;28;45541;-72
2021/11/15 10:11:21;;;;;;;;;44.75;35.50;;;;;9.39;74.11;102208.94;4915492;28;45455;-68
2021/11/15 10:13:48;;;;;;;;;42.25;34.25;;;;;9.38;74.17;102207.22;4923488;28;45418;-75
2021/11/15 10:16:23;;;;;;;;;38.50;34.75;;;;;9.34;74.48;102201.22;4921274;28;45490;-69
2021/11/15 10:18:57;;;;;;;;;30.75;26.25;;;;;9.35;73.92;102199.44;4923500;28;45479;-73
2021/11/15 10:21:46;;;;;;;;;24.00;20.75;;;;;9.35;74.41;102202.06;4916863;28;45407;-74
2021/11/15 10:24:20;;;;;;;;;36.75;30.75;;;;;9.35;73.73;102199.44;4920640;28;45492;-74
2021/11/15 10:26:55;;;;;;;;;40.00;33.75;;;;;9.32;74.51;102194.25;4920227;28;45394;-69
2021/11/15 10:29:22;;;;;;;;;41.00;32.00;;;;;9.36;74.01;102198.53;4919085;28;45449;-70
2021/11/15 10:32:02;;;;;;;;;31.25;27.00;;;;;9.35;74.05;102197.69;4899269;28;45460;-70
2021/11/15 10:34:43;;;;;;;;;40.50;29.25;;;;;9.30;73.96;102196.94;4915310;28;45394;-72
2021/11/15 10:37:16;;;;;;;;;37.25;27.25;;;;;9.27;74.13;102196.19;4915013;28;45444;-76
2021/11/15 10:39:49;;;;;;;;;39.50;33.25;;;;;9.28;74.36;102197.91;4914438;28;45277;-71
2021/11/15 10:42:16;;;;;;;;;38.50;33.00;;;;;9.35;74.29;102194.19;4916560;28;45493;-73
2021/11/15 10:44:57;;;;;;;;;41.50;33.75;;;;;9.36;74.27;102183.63;4901110;28;45432;-72
2021/11/15 10:47:44;;;;;;;;;38.00;33.50;;;;;9.42;74.51;102191.31;4917433;28;45373;-71
2021/11/15 10:50:43;;;;;;;;;39.75;32.50;;;;;9.41;74.48;102191.38;4915575;28;45547;-75
2021/11/15 10:53:14;;;;;;;;;35.00;30.25;;;;;9.43;74.76;102181.66;4916595;28;45442;-73
2021/11/15 10:56:06;;;;;;;;;39.25;29.00;;;;;9.46;74.51;102184.19;4917269;28;45480;-77
2021/11/15 10:58:39;;;;;;;;;41.25;31.00;;;;;9.52;74.46;102176.97;4915426;28;45660;-75
2021/11/15 11:01:06;;;;;;;;;42.25;34.00;;;;;9.57;74.06;102173.34;4916845;28;46203;-73
2021/11/15 11:03:32;;;;;;;;;45.25;35.75;;;;;9.59;74.01;102171.50;4917121;28;45384;-75
2021/11/15 11:06:02;;;;;;;;;43.50;32.50;;;;;9.59;74.18;102171.50;4916835;28;45334;-75
2021/11/15 11:08:31;;;;;;;;;47.75;34.75;;;;;9.59;73.67;102163.63;4916931;28;45499;-75
2021/11/15 11:11:05;;;;;;;;;41.75;30.25;;;;;9.54;74.20;102171.66;4914582;28;45434;-74
2021/11/15 11:13:53;;;;;;;;;35.25;31.00;;;;;9.55;73.99;102164.59;4915037;28;45337;-75
2021/11/15 11:16:54;;;;;;;;;40.50;32.25;;;;;9.58;74.36;102169.78;4917518;28;45484;-74
2021/11/15 11:19:36;;;;;;;;;53.00;35.50;;;;;9.61;73.83;102167.06;4819712;29;45438;-71
2021/11/15 11:22:38;;;;;;;;;47.00;36.25;;;;;9.65;73.30;102169.56;4905391;28;45417;-74
2021/11/15 11:25:18;;;;;;;;;42.00;34.75;;;;;9.66;73.85;102167.78;4914908;28;45457;-69
2021/11/15 11:27:43;;;;;;;;;41.25;34.25;;;;;9.67;73.87;102167.72;4916972;28;45866;-77
2021/11/15 11:30:09;;;;;;;;;39.50;35.25;;;;;9.67;74.05;102172.13;4916671;28;45374;-71
2021/11/15 11:32:35;;;;;;;;;46.75;36.75;;;;;9.66;73.87;102163.38;4914831;28;45922;-75
2021/11/15 11:35:04;;;;;;;;;40.75;33.00;;;;;9.70;74.23;102164.97;4915292;28;45322;-72
2021/11/15 11:37:30;;;;;;;;;45.25;35.50;;;;;9.77;73.85;102174.38;4914742;28;45318;-75
2021/11/15 11:39:59;;;;;;;;;38.50;31.00;;;;;9.83;74.06;102161.94;4914875;28;45442;-72
2021/11/15 11:42:26;;;;;;;;;42.50;32.25;;;;;9.83;73.63;102159.31;4914090;28;45528;-75
2021/11/15 11:44:53;;;;;;;;;42.25;32.50;;;;;9.82;73.32;102153.19;4914250;28;45347;-70
2021/11/15 11:47:21;;;;;;;;;45.75;35.50;;;;;9.82;73.78;102154.97;4915141;28;45571;-75
2021/11/15 11:49:47;;;;;;;;;45.50;33.25;;;;;9.84;73.42;102151.38;4898255;28;45562;-73
2021/11/15 11:52:16;;;;;;;;;51.00;36.50;;;;;9.88;73.98;102150.38;4915089;28;46235;-76
2021/11/15 11:54:45;;;;;;;;;41.50;34.75;;;;;9.91;73.23;102150.25;4914183;28;45419;-70
2021/11/15 11:57:16;;;;;;;;;37.25;29.50;;;;;9.90;73.61;102161.69;4917419;28;45221;-75
2021/11/15 12:00:07;;;;;;;;;44.75;33.50;;;;;9.85;73.22;102155.72;4914271;28;45409;-69
2021/11/15 12:02:32;;;;;;;;;42.75;34.25;;;;;9.84;73.56;102155.78;4905194;28;45655;-68
2021/11/15 12:05:04;;;;;;;;;49.75;37.50;;;;;9.84;73.05;102155.78;4916598;28;45477;-73
2021/11/15 12:07:33;;;;;;;;;44.75;38.25;;;;;9.84;73.32;102161.03;4917200;28;45392;-74
2021/11/15 12:10:10;;;;;;;;;49.25;35.75;;;;;9.85;73.81;102168.88;4913263;28;45549;-69
2021/11/15 12:12:51;;;;;;;;;54.25;38.50;;;;;9.83;73.32;102160.19;4915294;28;45521;-78
2021/11/15 12:15:36;;;;;;;;;46.00;35.50;;;;;9.82;73.32;102155.81;4915312;28;45617;-70
2021/11/15 12:18:24;;;;;;;;;44.75;39.00;;;;;9.86;73.84;102159.19;4916465;28;45368;-74
2021/11/15 12:21:05;;;;;;;;;50.75;40.00;;;;;9.90;73.61;102155.56;4914593;28;45384;-74
2021/11/15 12:23:40;;;;;;;;;41.25;35.50;;;;;9.88;73.70;102155.63;4897495;28;45459;-71
2021/11/15 12:26:13;;;;;;;;;59.25;40.00;;;;;9.91;73.82;102152.03;4913643;28;45214;-72
2021/11/15 12:28:41;;;;;;;;;66.00;46.50;;;;;9.96;73.89;102143.06;4914864;28;45335;-73
2021/11/15 12:31:08;;;;;;;;;53.00;41.50;;;;;9.99;73.58;102148.22;4915112;28;45810;-68
2021/11/15 12:33:36;;;;;;;;;59.50;40.00;;;;;10.04;73.51;102145.44;4913795;28;45457;-71
2021/11/15 12:36:22;;;;;;;;;54.00;40.50;;;;;10.10;72.98;102133.81;4912765;28;45271;-74
2021/11/15 12:38:58;;;;;;;;;49.75;37.50;;;;;10.13;73.42;102131.94;4915705;28;45520;-69
2021/11/15 12:41:24;;;;;;;;;46.75;36.25;;;;;10.18;73.36;102129.13;4917221;28;45545;-70
2021/11/15 12:43:59;;;;;;;;;50.50;34.25;;;;;10.20;73.28;102135.22;4914052;28;46545;-77
2021/11/15 12:46:58;;;;;;;;;44.50;36.50;;;;;10.21;73.01;102137.81;4913987;28;45473;-70
2021/11/15 12:49:30;;;;;;;;;50.25;38.25;;;;;10.16;72.65;102137.09;4917736;28;45450;-70
2021/11/15 12:52:10;;;;;;;;;50.25;38.25;;;;;10.13;73.17;102133.72;4920573;28;45521;-71
2021/11/15 12:54:53;;;;;;;;;45.00;39.00;;;;;10.11;73.29;102128.53;4919155;28;45384;-75
2021/11/15 12:57:19;;;;;;;;;47.25;38.50;;;;;10.11;73.14;102125.00;4918145;28;45418;-72
2021/11/15 12:59:49;;;;;;;;;54.50;40.50;;;;;10.14;72.96;102131.03;4917120;28;45447;-73
2021/11/15 13:02:15;;;;;;;;;59.50;39.75;;;;;10.17;73.31;102136.19;4920188;28;45562;-70
2021/11/15 13:04:42;;;;;;;;;54.50;35.50;;;;;10.18;72.70;102129.13;4918203;28;45368;-74
2021/11/15 13:07:12;;;;;;;;;47.25;38.25;;;;;10.18;72.76;102129.13;4917567;28;45296;-73
2021/11/15 13:09:39;;;;;;;;;52.25;39.25;;;;;10.17;72.77;102119.53;4916279;28;45378;-73
2021/11/15 13:12:05;;;;;;;;;41.25;33.25;;;;;10.15;72.83;102114.31;4918967;28;45333;-72
2021/11/15 13:14:31;;;;;;;;;52.75;39.00;;;;;10.16;73.17;102117.81;4918883;28;45828;-74
2021/11/15 13:16:59;;;;;;;;;46.75;36.75;;;;;10.12;73.28;102122.34;4918938;28;45375;-72
2021/11/15 13:19:25;;;;;;;;;46.00;35.00;;;;;10.10;73.06;102121.50;4916136;28;45413;-76
2021/11/15 13:21:51;;;;;;;;;40.25;31.50;;;;;10.04;72.59;102114.72;4918867;28;45453;-74
2021/11/15 13:24:18;;;;;;;;;48.00;38.00;;;;;10.07;73.11;102111.09;4915764;28;45420;-75
2021/11/15 13:26:49;;;;;;;;;38.75;31.25;;;;;10.08;73.42;102116.31;4916267;28;45409;-73
2021/11/15 13:29:18;;;;;;;;;37.50;28.25;;;;;10.06;72.54;102112.88;4920103;28;45427;-74
2021/11/15 13:31:46;;;;;;;;;44.50;36.00;;;;;10.03;72.62;102113.00;4916715;28;45328;-72
2021/11/15 13:34:12;;;;;;;;;33.00;25.75;;;;;9.98;72.54;102116.69;4919455;28;45578;-74
2021/11/15 13:36:39;;;;;;;;;38.25;31.00;;;;;9.96;73.00;102114.13;4916891;28;45435;-64
2021/11/15 13:39:07;;;;;;;;;37.75;31.50;;;;;9.97;73.17;102112.34;4907198;28;45436;-61
2021/11/15 13:41:32;;;;;;;;;29.25;28.50;;;;;10.00;72.77;102106.97;4916771;28;45425;-67
2021/11/15 13:43:58;;;;;;;;;31.75;26.00;;;;;10.00;72.53;102102.56;4907278;28;45993;-65
2021/11/15 13:46:27;;;;;;;;;33.50;26.25;;;;;9.97;72.42;102104.44;4917161;28;45272;-65
2021/11/15 13:48:54;;;;;;;;;33.75;28.75;;;;;9.93;72.07;102103.69;4913434;28;45399;-68
2021/11/15 13:51:19;;;;;;;;;32.00;26.00;;;;;9.90;72.22;102100.31;4909201;28;45386;-67
2021/11/15 13:53:45;;;;;;;;;37.00;27.75;;;;;9.91;72.64;102107.28;4913114;28;45767;-68
2021/11/15 13:56:11;;;;;;;;;38.25;29.50;;;;;9.90;72.65;102105.56;4911628;28;45503;-67
2021/11/15 13:58:37;;;;;;;;;33.50;24.00;;;;;9.92;72.04;102109.84;4915701;28;45299;-69
2021/11/15 14:01:07;;;;;;;;;35.50;24.75;;;;;9.90;72.11;102109.06;4910919;28;45323;-67
2021/11/15 14:03:38;;;;;;;;;30.50;26.00;;;;;9.91;72.31;102113.41;4911711;28;46486;-70
2021/11/15 14:06:05;;;;;;;;;38.25;32.25;;;;;9.88;72.45;102092.47;4915166;28;45461;-64
2021/11/15 14:08:32;;;;;;;;;32.50;26.00;;;;;9.87;72.14;102106.50;4913241;28;45315;-67
2021/11/15 14:11:01;;;;;;;;;43.25;32.25;;;;;9.83;72.05;102106.69;4909266;28;45372;-65
2021/11/15 14:13:28;;;;;;;;;30.25;29.25;;;;;9.82;71.96;102107.59;4915953;28;46362;-67
2021/11/15 14:15:54;;;;;;;;;39.00;32.25;;;;;9.83;72.09;102110.19;4916373;28;45436;-63
2021/11/15 14:18:20;;;;;;;;;38.00;30.75;;;;;9.74;72.08;102107.88;4917463;28;45512;-63
2021/11/15 14:20:46;;;;;;;;;28.50;27.50;;;;;9.67;72.58;102115.09;4916241;28;45443;-66
2021/11/15 14:23:12;;;;;;;;;33.50;29.75;;;;;9.70;72.39;102132.53;4915286;28;45480;-66
2021/11/15 14:25:38;;;;;;;;;19.00;14.00;;;;;9.67;72.10;102114.25;4915063;28;45584;-69
2021/11/15 14:28:10;;;;;;;;;34.25;25.25;;;;;9.66;72.88;102105.50;4917652;28;45448;-68
2021/11/15 14:30:37;;;;;;;;;41.25;34.00;;;;;9.69;72.20;102109.78;4918349;28;45176;-67
2021/11/15 14:33:03;;;;;;;;;41.75;35.50;;;;;9.67;72.32;102109.84;4915011;28;45214;-67
2021/11/15 14:35:29;;;;;;;;;45.50;33.75;;;;;9.64;72.88;102102.06;4917822;28;45405;-68
2021/11/15 14:37:55;;;;;;;;;46.75;37.25;;;;;9.69;72.47;102105.38;4916501;28;45394;-68
2021/11/15 14:40:21;;;;;;;;;45.50;35.75;;;;;9.68;72.20;102110.69;4915171;28;45548;-65
2021/11/15 14:42:49;;;;;;;;;41.00;34.75;;;;;9.67;72.96;102107.19;4916115;28;45646;-67
2021/11/15 14:45:15;;;;;;;;;43.50;30.25;;;;;9.65;72.62;102119.56;4918346;28;45412;-65
2021/11/15 14:47:41;;;;;;;;;40.00;36.00;;;;;9.63;72.78;102116.09;4918650;28;45466;-65
2021/11/15 14:50:08;;;;;;;;;42.75;34.75;;;;;9.58;72.66;102118.03;4914640;28;45236;-67
2021/11/15 14:52:35;;;;;;;;;37.75;31.50;;;;;9.61;72.71;102111.81;4916175;28;46047;-64
2021/11/15 14:55:01;;;;;;;;;34.25;29.50;;;;;9.63;72.73;102110.84;4914756;28;45638;-64
2021/11/15 14:57:28;;;;;;;;;32.50;24.25;;;;;9.65;72.15;102113.44;4920326;28;45544;-65
2021/11/15 14:59:53;;;;;;;;;37.25;29.50;;;;;9.62;72.39;102110.88;4917055;28;45409;-66
2021/11/15 15:02:19;;;;;;;;;33.50;28.50;;;;;9.63;73.01;102115.25;4916072;28;45378;-65
2021/11/15 15:04:45;;;;;;;;;44.00;34.50;;;;;9.67;72.46;102112.47;4915882;28;45338;-66
2021/11/15 15:07:11;;;;;;;;;37.75;32.25;;;;;9.67;72.07;102117.72;4915854;28;45237;-66
2021/11/15 15:09:39;;;;;;;;;34.25;25.00;;;;;9.67;71.96;102120.34;4902969;28;45355;-66
2021/11/15 15:12:06;;;;;;;;;34.00;25.00;;;;;9.69;72.06;102117.66;4916572;28;46440;-65
2021/11/15 15:14:33;;;;;;;;;36.25;31.75;;;;;9.72;72.43;102118.44;4913332;28;45439;-67
2021/11/15 15:16:59;;;;;;;;;40.75;26.00;;;;;9.76;71.70;102124.44;4916807;28;45477;-65
2021/11/15 15:19:30;;;;;;;;;34.00;31.75;;;;;9.78;71.38;102127.88;4914932;28;45331;-66
2021/11/15 15:21:56;;;;;;;;;35.50;25.75;;;;;9.77;71.50;102132.28;4915961;28;45555;-67
2021/11/15 15:24:24;;;;;;;;;32.25;26.00;;;;;9.76;71.68;102121.81;4913532;28;45547;-66
2021/11/15 15:26:51;;;;;;;;;42.75;34.00;;;;;9.77;71.48;102134.06;4915717;28;45378;-65
2021/11/15 15:29:18;;;;;;;;;34.00;28.00;;;;;9.74;71.57;102127.13;4917702;28;45256;-64
2021/11/15 15:31:44;;;;;;;;;36.75;30.25;;;;;9.74;71.97;102134.19;4915398;28;45366;-64
2021/11/15 15:34:10;;;;;;;;;36.75;30.50;;;;;9.76;72.46;102129.72;4913640;28;45305;-66
2021/11/15 15:36:36;;;;;;;;;37.50;31.00;;;;;9.77;71.83;102127.03;4915295;28;45471;-68
2021/11/15 15:39:04;;;;;;;;;38.50;31.75;;;;;9.77;72.47;102116.50;4914505;28;45409;-67
2021/11/15 15:41:31;;;;;;;;;33.75;27.00;;;;;9.71;71.88;102124.59;4914455;28;45519;-66
2021/11/15 15:43:57;;;;;;;;;38.75;31.25;;;;;9.64;71.75;102122.25;4914622;28;45236;-66
2021/11/15 15:46:23;;;;;;;;;34.25;29.00;;;;;9.56;72.26;102133.03;4915141;28;45361;-66
2021/11/15 15:48:53;;;;;;;;;38.25;29.75;;;;;9.55;72.50;102128.63;4914744;28;45524;-71
2021/11/15 15:51:20;;;;;;;;;43.75;35.00;;;;;9.57;72.62;102137.38;4916137;28;45480;-65
2021/11/15 15:53:48;;;;;;;;;42.00;32.50;;;;;9.60;72.48;102133.75;4917593;28;45376;-69
2021/11/15 15:56:14;;;;;;;;;41.00;30.50;;;;;9.60;72.66;102142.53;4916586;28;45234;-69
2021/11/15 15:58:40;;;;;;;;;44.50;32.00;;;;;9.60;72.83;102139.88;4916490;28;45366;-66
2021/11/15 16:01:06;;;;;;;;;42.50;35.75;;;;;9.61;72.74;102138.13;4919974;28;45426;-64
2021/11/15 16:03:59;;;;;;;;;38.75;30.50;;;;;9.61;72.75;102143.38;4916942;28;45529;-63
2021/11/15 16:14:03;;;;;;;;;46.00;36.00;;;;;9.60;72.95;102155.66;4922360;28;45271;-60
2021/11/15 16:16:31;;;;;;;;;39.00;28.50;;;;;9.60;72.23;102157.44;4919920;28;45368;-67
2021/11/15 16:19:00;;;;;;;;;40.75;32.50;;;;;9.58;72.33;102160.13;4899310;28;45517;-68
2021/11/15 16:21:30;;;;;;;;;47.25;35.25;;;;;9.56;72.23;102158.44;4916399;28;45549;-67
2021/11/15 16:23:57;;;;;;;;;43.00;34.00;;;;;9.61;72.64;102159.16;4902789;28;45687;-69
2021/11/15 16:26:23;;;;;;;;;52.00;35.50;;;;;9.65;72.34;102158.16;4907776;28;45512;-73
2021/11/15 16:28:51;;;;;;;;;34.50;30.50;;;;;9.66;72.08;102155.47;4912501;28;45482;-67
2021/11/15 16:31:18;;;;;;;;;38.25;33.00;;;;;9.69;72.51;102158.00;4915789;28;45322;-71
2021/11/15 16:33:44;;;;;;;;;28.50;25.50;;;;;9.69;71.95;102162.41;4926037;28;45299;-64
2021/11/15 16:36:09;;;;;;;;;32.25;27.25;;;;;9.69;71.62;102165.03;4917888;28;45259;-67
2021/11/15 16:38:35;;;;;;;;;22.75;18.75;;;;;9.68;71.80;102165.94;4926249;28;45405;-69
2021/11/15 16:41:00;;;;;;;;;32.75;26.00;;;;;9.67;72.30;102162.47;4926134;28;45418;-65
2021/11/15 16:43:26;;;;;;;;;29.75;25.00;;;;;9.71;72.17;102165.84;4925859;28;45347;-73
2021/11/15 16:45:52;;;;;;;;;29.00;26.00;;;;;9.76;71.67;102167.41;4925882;28;45233;-67
2021/11/15 16:48:18;;;;;;;;;36.00;31.00;;;;;9.78;72.13;102167.34;4926397;28;45623;-67
2021/11/15 16:50:46;;;;;;;;;30.25;23.00;;;;;9.83;72.04;102159.31;4925826;28;46299;-68
2021/11/15 16:53:12;;;;;;;;;30.25;27.00;;;;;9.85;72.19;102168.00;4924884;28;45531;-72
2021/11/15 16:55:38;;;;;;;;;38.00;28.00;;;;;9.82;72.38;102161.09;4922536;28;45516;-64
2021/11/15 16:58:04;;;;;;;;;35.00;30.00;;;;;9.79;72.25;102163.81;4925584;28;45437;-69
2021/11/15 17:00:39;;;;;;;;;43.50;30.00;;;;;9.73;72.02;102158.78;4925703;28;46080;-68
2021/11/15 17:03:07;;;;;;;;;38.00;29.00;;;;;9.66;72.46;102163.38;4925617;28;45461;-65
2021/11/15 17:05:35;;;;;;;;;33.50;27.25;;;;;9.63;73.27;102165.22;4925640;28;45236;-70
2021/11/15 17:08:01;;;;;;;;;28.00;25.75;;;;;9.62;73.00;102167.00;4926140;28;45322;-72
2021/11/15 17:10:32;;;;;;;;;61.25;47.25;;;;;9.62;73.18;102164.38;4925535;28;45467;-68
2021/11/15 17:13:00;;;;;;;;;31.00;28.50;;;;;9.59;73.45;102168.88;4908598;28;45293;-70
2021/11/15 17:15:27;;;;;;;;;48.25;37.50;;;;;9.55;73.44;102162.84;4925721;28;45719;-73
2021/11/15 17:17:53;;;;;;;;;38.75;32.50;;;;;9.55;73.55;102161.97;4922971;28;45441;-75
2021/11/15 17:20:21;;;;;;;;;44.50;34.75;;;;;9.54;74.24;102165.53;4921056;28;45451;-70
2021/11/15 17:22:46;;;;;;;;;53.75;35.50;;;;;9.57;73.76;102163.69;4916450;28;45523;-68
2021/11/15 17:25:12;;;;;;;;;42.25;36.75;;;;;9.58;73.92;102167.16;4916076;28;45369;-66
2021/11/15 17:27:38;;;;;;;;;48.50;34.00;;;;;9.58;74.16;102160.13;4916910;28;45557;-68
2021/11/15 17:30:07;;;;;;;;;49.50;35.50;;;;;9.56;74.47;102158.44;4923004;28;46128;-71
2021/11/15 17:32:34;;;;;;;;;50.00;36.00;;;;;9.57;74.28;102162.81;4920677;28;45293;-72
2021/11/15 17:35:00;;;;;;;;;48.25;37.00;;;;;9.60;74.11;102162.69;4922531;28;45457;-78